createdAt,value
2022-12-02T00:01:36.408Z,13.95
2022-12-02T00:04:38.586Z,14.90
2022-12-02T00:07:40.448Z,13.88
2022-12-02T00:10:44.215Z,19.40
2022-12-02T00:13:46.994Z,13.98
2022-12-02T00:16:51.129Z,15.13
2022-12-02T00:19:53.445Z,16.27
2022-12-02T00:22:55.749Z,15.52
2022-12-02T00:25:57.830Z,14.43
2022-12-02T00:28:59.807Z,12.63
2022-12-02T00:32:03.369Z,19.73
2022-12-02T00:35:05.759Z,15.68
2022-12-02T00:38:07.495Z,12.25
2022-12-02T00:41:09.788Z,13.57
2022-12-02T00:44:30.152Z,15.63
2022-12-02T00:47:32.227Z,14.50
2022-12-02T00:50:34.507Z,14.02
2022-12-02T00:53:36.295Z,14.63
2022-12-02T00:56:38.525Z,13.45
2022-12-02T00:59:40.345Z,13.55
2022-12-02T01:02:42.513Z,16.83
2022-12-02T01:05:44.389Z,20.13
2022-12-02T01:08:46.164Z,20.45
2022-12-02T01:11:48.389Z,16.02
2022-12-02T01:14:50.486Z,13.00
2022-12-02T01:17:52.690Z,20.00
2022-12-02T01:20:54.970Z,15.32
2022-12-02T01:23:56.706Z,13.90
2022-12-02T01:26:58.712Z,12.50
2022-12-02T01:30:00.602Z,12.43
2022-12-02T01:33:02.475Z,14.18
2022-12-02T01:36:04.635Z,12.68
2022-12-02T01:39:10.213Z,29.65
2022-12-02T01:42:13.868Z,17.58
2022-12-02T01:45:16.480Z,13.25
2022-12-02T01:48:19.045Z,13.05
2022-12-02T01:51:20.830Z,13.82
2022-12-02T01:54:22.630Z,12.85
2022-12-02T01:57:29.543Z,14.75
2022-12-02T02:00:31.792Z,11.82
2022-12-02T02:03:34.009Z,15.05
2022-12-02T02:06:39.265Z,14.38
2022-12-02T02:09:41.532Z,16.60
2022-12-02T02:12:45.113Z,12.60
2022-12-02T02:15:47.403Z,16.45
2022-12-02T02:18:50.171Z,10.73
2022-12-02T02:21:53.767Z,18.25
2022-12-02T02:24:55.892Z,11.73
2022-12-02T02:28:01.912Z,13.32
2022-12-02T02:31:05.824Z,16.00
2022-12-02T02:34:13.168Z,15.00
2022-12-02T02:37:15.057Z,11.02
2022-12-02T02:40:18.732Z,9.10
2022-12-02T02:43:23.507Z,9.05
2022-12-02T02:46:26.375Z,14.88
2022-12-02T02:49:28.417Z,13.75
2022-12-02T02:52:30.290Z,12.07
2022-12-02T02:55:33.192Z,17.13
2022-12-02T02:58:36.304Z,16.60
2022-12-02T03:01:39.152Z,13.52
2022-12-02T03:04:42.084Z,16.55
2022-12-02T03:07:44.019Z,12.20
2022-12-02T03:10:46.788Z,15.75
2022-12-02T03:13:50.571Z,17.88
2022-12-02T03:16:53.083Z,13.30
2022-12-02T03:19:55.152Z,13.73
2022-12-02T03:22:56.988Z,13.15
2022-12-02T03:25:59.302Z,11.57
2022-12-02T03:29:02.186Z,14.55
2022-12-02T03:32:04.913Z,12.35
2022-12-02T03:35:07.375Z,12.18
2022-12-02T03:38:11.153Z,11.30
2022-12-02T03:41:15.861Z,15.35
2022-12-02T03:44:17.959Z,12.50
2022-12-02T03:47:19.799Z,11.50
2022-12-02T03:50:22.020Z,16.60
2022-12-02T03:53:24.621Z,22.13
2022-12-02T03:56:26.480Z,18.70
2022-12-02T03:59:28.926Z,19.60
2022-12-02T04:02:31.581Z,12.65
2022-12-02T04:05:33.415Z,18.73
2022-12-02T04:08:35.559Z,13.07
2022-12-02T04:11:37.586Z,14.77
2022-12-02T04:14:39.593Z,15.32
2022-12-02T04:17:41.607Z,11.68
2022-12-02T04:20:43.524Z,9.48
2022-12-02T04:23:45.585Z,15.00
2022-12-02T04:26:47.454Z,17.08
2022-12-02T04:29:49.270Z,15.98
2022-12-02T04:32:51.234Z,13.82
2022-12-02T04:35:53.320Z,13.30
2022-12-02T04:38:55.162Z,18.10
2022-12-02T04:41:57.456Z,16.15
2022-12-02T04:44:59.673Z,10.27
2022-12-02T04:48:01.507Z,13.10
2022-12-02T04:51:04.165Z,14.65
2022-12-02T04:54:06.033Z,13.25
2022-12-02T04:57:08.854Z,18.42
2022-12-02T05:00:11.809Z,13.00
2022-12-02T05:03:13.836Z,17.40
2022-12-02T05:06:16.107Z,10.00
2022-12-02T05:09:18.371Z,14.65
2022-12-02T05:12:20.825Z,12.75
2022-12-02T05:15:25.118Z,14.15
2022-12-02T05:18:27.302Z,14.02
2022-12-02T05:21:29.505Z,16.48
2022-12-02T05:24:31.395Z,13.40
2022-12-02T05:27:35.591Z,16.05
2022-12-02T05:30:37.657Z,16.90
2022-12-02T05:33:39.647Z,12.13
2022-12-02T05:36:41.495Z,13.02
2022-12-02T05:39:44.558Z,15.90
2022-12-02T05:42:49.450Z,20.52
2022-12-02T05:45:51.731Z,17.17
2022-12-02T05:48:53.811Z,17.88
2022-12-02T05:52:00.986Z,11.40
2022-12-02T05:55:12.142Z,14.52
2022-12-02T05:58:14.689Z,12.50
2022-12-02T06:01:29.383Z,30.40
2022-12-02T06:04:33.289Z,8.85
2022-12-02T06:07:36.547Z,16.65
2022-12-02T06:10:38.847Z,11.55
2022-12-02T06:13:41.015Z,11.88
2022-12-02T06:16:47.621Z,14.13
2022-12-02T06:19:53.963Z,12.35
2022-12-02T06:22:57.733Z,9.80
2022-12-02T06:25:59.960Z,11.15
2022-12-02T06:29:03.792Z,12.20
2022-12-02T06:32:06.991Z,14.65
2022-12-02T06:35:33.019Z,7.78
2022-12-02T06:38:43.788Z,11.52
2022-12-02T06:41:46.575Z,9.63
2022-12-02T06:45:07.257Z,15.60
2022-12-02T06:48:22.119Z,9.00
2022-12-02T06:51:24.021Z,14.65
2022-12-02T06:54:30.072Z,7.75
2022-12-02T06:57:32.338Z,11.65
2022-12-02T07:00:34.752Z,8.27
2022-12-02T07:03:39.056Z,10.35
2022-12-02T07:06:46.485Z,11.30
2022-12-02T07:09:57.862Z,9.68
2022-12-02T07:13:13.114Z,14.57
2022-12-02T07:16:51.257Z,14.50
2022-12-02T07:20:11.439Z,17.27
2022-12-02T07:23:21.522Z,18.20
2022-12-02T07:26:24.219Z,13.90
2022-12-02T07:29:30.189Z,14.32
2022-12-02T07:32:32.261Z,13.60
2022-12-02T07:35:34.573Z,16.15
2022-12-02T07:39:04.696Z,16.42
2022-12-02T07:41:59.108Z,17.88
2022-12-02T07:45:01.830Z,14.95
2022-12-02T07:48:05.664Z,13.98
2022-12-02T07:51:08.326Z,9.75
2022-12-02T07:54:10.747Z,16.95
2022-12-02T07:57:12.665Z,17.27
2022-12-02T08:00:15.509Z,11.82
2022-12-02T08:03:17.652Z,16.02
2022-12-02T08:06:19.625Z,18.15
2022-12-02T08:09:21.586Z,19.63
2022-12-02T08:12:23.881Z,12.82
2022-12-02T08:15:26.166Z,20.70
2022-12-02T08:18:28.721Z,14.60
2022-12-02T08:21:32.498Z,10.48
2022-12-02T08:24:34.701Z,21.25
2022-12-02T08:27:44.982Z,14.07
2022-12-02T08:30:47.956Z,13.88
2022-12-02T08:33:50.620Z,11.95
2022-12-02T08:36:52.728Z,13.27
2022-12-02T08:39:54.613Z,14.20
2022-12-02T08:42:56.611Z,16.35
2022-12-02T08:45:58.761Z,18.33
2022-12-02T08:49:00.996Z,14.40
2022-12-02T08:52:03.372Z,10.70
2022-12-02T08:55:05.872Z,17.90
2022-12-02T08:58:10.600Z,14.20
2022-12-02T09:01:12.733Z,14.50
2022-12-02T09:04:16.045Z,14.07
2022-12-02T09:07:18.244Z,13.70
2022-12-02T09:10:21.152Z,14.57
2022-12-02T09:13:23.543Z,14.80
2022-12-02T09:16:25.706Z,14.13
2022-12-02T09:19:28.018Z,12.07
2022-12-02T09:22:30.208Z,14.32
2022-12-02T09:25:32.168Z,14.98
2022-12-02T09:28:34.248Z,16.05
2022-12-02T09:31:36.350Z,13.25
2022-12-02T09:34:38.446Z,11.30
2022-12-02T09:37:40.839Z,16.27
2022-12-02T09:40:42.920Z,17.08
2022-12-02T09:43:45.537Z,17.70
2022-12-02T09:46:47.831Z,17.65
2022-12-02T09:49:49.879Z,12.45
2022-12-02T09:52:53.017Z,18.73
2022-12-02T09:55:56.015Z,18.55
2022-12-02T09:58:58.271Z,16.73
2022-12-02T10:02:00.389Z,15.27
2022-12-02T10:05:20.739Z,15.55
2022-12-02T10:08:26.428Z,16.42
2022-12-02T10:11:35.149Z,17.25
2022-12-02T10:14:38.021Z,17.83
2022-12-02T10:17:40.370Z,12.77
2022-12-02T10:20:42.528Z,22.95
2022-12-02T10:24:09.785Z,16.67
2022-12-02T10:27:25.261Z,12.57
2022-12-02T10:30:28.986Z,14.50
2022-12-02T10:33:33.880Z,17.88
2022-12-02T10:36:43.493Z,17.23
2022-12-02T10:39:45.513Z,16.15
2022-12-02T10:42:48.576Z,16.33
2022-12-02T10:45:58.355Z,16.92
2022-12-02T10:49:15.815Z,11.55
2022-12-02T10:52:20.067Z,18.17
2022-12-02T10:55:25.052Z,17.65
2022-12-02T10:58:31.299Z,19.88
2022-12-02T11:01:33.554Z,18.08
2022-12-02T11:04:37.002Z,14.98
2022-12-02T11:07:39.293Z,18.35
2022-12-02T11:10:43.196Z,17.83
2022-12-02T11:14:02.538Z,26.65
2022-12-02T11:17:10.398Z,17.25
2022-12-02T11:20:31.125Z,15.43
2022-12-02T11:23:34.652Z,17.83
2022-12-02T11:27:04.446Z,19.92
2022-12-02T11:30:07.350Z,17.92
2022-12-02T11:34:05.662Z,15.60
2022-12-02T11:37:27.730Z,21.83
2022-12-02T11:40:32.665Z,17.65
2022-12-02T11:44:08.680Z,16.85
2022-12-02T11:47:25.867Z,16.30
2022-12-02T11:50:28.297Z,19.13
2022-12-02T11:53:30.324Z,17.67
2022-12-02T11:56:38.910Z,15.27
2022-12-02T11:59:41.694Z,17.20
2022-12-02T12:02:44.480Z,16.80
2022-12-02T12:06:23.347Z,13.82
2022-12-02T12:12:27.895Z,15.40
2022-12-02T12:15:52.724Z,22.67
2022-12-02T12:18:57.062Z,14.07
2022-12-02T12:22:29.837Z,16.85
2022-12-02T12:25:42.525Z,17.63
2022-12-02T12:28:44.459Z,17.10
2022-12-02T12:31:46.753Z,15.07
2022-12-02T12:34:49.196Z,19.58
2022-12-02T12:37:51.483Z,20.17
2022-12-02T12:40:55.174Z,15.48
2022-12-02T12:43:57.750Z,19.27
2022-12-02T12:47:04.751Z,15.95
2022-12-02T12:53:10.056Z,14.23
2022-12-02T12:56:12.017Z,15.70
2022-12-02T12:59:15.387Z,14.82
2022-12-02T13:02:19.078Z,20.50
2022-12-02T13:05:21.370Z,15.13
2022-12-02T13:08:23.876Z,21.15
2022-12-02T13:11:26.625Z,15.18
2022-12-02T13:14:28.777Z,19.23
2022-12-02T13:17:30.874Z,16.98
2022-12-02T13:20:33.306Z,15.18
2022-12-02T13:23:37.287Z,15.07
2022-12-02T13:26:39.307Z,12.23
2022-12-02T13:29:42.164Z,15.65
2022-12-02T13:32:48.105Z,17.13
2022-12-02T13:35:50.274Z,14.27
2022-12-02T13:38:52.088Z,13.20
2022-12-02T13:41:57.722Z,18.23
2022-12-02T13:44:59.856Z,18.85
2022-12-02T13:48:02.416Z,17.08
2022-12-02T13:51:04.562Z,16.83
2022-12-02T13:54:07.231Z,17.25
2022-12-02T13:57:09.666Z,14.27
2022-12-02T14:00:13.293Z,15.85
2022-12-02T14:03:15.412Z,18.58
2022-12-02T14:06:17.653Z,14.77
2022-12-02T14:09:20.142Z,14.55
2022-12-02T14:12:24.713Z,13.30
2022-12-02T14:15:27.089Z,16.63
2022-12-02T14:18:29.499Z,21.65
2022-12-02T14:21:31.685Z,25.00
2022-12-02T14:24:33.784Z,18.02
2022-12-02T14:27:36.272Z,21.58
2022-12-02T14:30:39.118Z,24.10
2022-12-02T14:34:09.672Z,16.15
2022-12-02T14:37:03.180Z,23.58
2022-12-02T14:40:07.988Z,21.25
2022-12-02T14:43:14.333Z,24.08
2022-12-02T14:46:16.989Z,15.23
2022-12-02T14:52:41.293Z,20.63
2022-12-02T14:55:43.259Z,14.75
2022-12-02T14:58:46.207Z,20.73
2022-12-02T15:01:48.489Z,20.60
2022-12-02T15:04:51.167Z,22.10
2022-12-02T15:07:53.667Z,14.23
2022-12-02T15:10:56.032Z,13.65
2022-12-02T15:13:58.753Z,19.23
2022-12-02T15:17:00.745Z,20.08
2022-12-02T15:20:03.055Z,14.85
2022-12-02T15:23:05.060Z,16.73
2022-12-02T15:26:07.262Z,13.52
2022-12-02T15:29:09.734Z,18.05
2022-12-02T15:32:17.356Z,20.52
2022-12-02T15:35:21.228Z,16.27
2022-12-02T15:38:24.764Z,16.15
2022-12-02T15:41:27.371Z,18.30
2022-12-02T15:44:29.845Z,34.40
2022-12-02T15:47:32.695Z,34.85
2022-12-02T15:50:35.000Z,32.65
2022-12-02T15:53:37.300Z,31.25
2022-12-02T15:56:39.730Z,43.75
2022-12-02T15:59:41.656Z,32.38
2022-12-02T16:02:44.620Z,31.08
2022-12-02T16:05:47.037Z,39.05
2022-12-02T16:08:53.797Z,35.50
2022-12-02T16:11:57.918Z,35.33
2022-12-02T16:15:01.170Z,23.67
2022-12-02T16:18:04.426Z,26.38
2022-12-02T16:21:07.535Z,24.05
2022-12-02T16:24:09.849Z,20.88
2022-12-02T16:27:12.066Z,24.70
2022-12-02T16:30:15.040Z,34.17
2022-12-02T16:33:17.256Z,39.72
2022-12-02T16:36:21.007Z,54.00
2022-12-02T16:39:23.448Z,39.80
2022-12-02T16:42:27.298Z,43.58
2022-12-02T16:45:31.479Z,55.75
2022-12-02T16:48:34.870Z,46.70
2022-12-02T16:51:37.489Z,48.88
2022-12-02T16:54:39.439Z,51.63
2022-12-02T16:57:42.392Z,51.13
2022-12-02T17:00:44.433Z,49.80
2022-12-02T17:03:46.730Z,46.53
2022-12-02T17:06:49.122Z,52.78
2022-12-02T17:09:51.549Z,35.80
2022-12-02T17:12:54.205Z,35.65
2022-12-02T17:15:56.572Z,32.65
2022-12-02T17:18:58.963Z,25.88
2022-12-02T17:22:01.457Z,20.75
2022-12-02T17:25:03.486Z,29.42
2022-12-02T17:28:05.857Z,26.17
2022-12-02T17:31:08.111Z,30.38
2022-12-02T17:34:11.407Z,24.40
2022-12-02T17:37:15.951Z,24.00
2022-12-02T17:40:19.356Z,25.25
2022-12-02T17:43:21.433Z,29.15
2022-12-02T17:46:23.493Z,26.17
2022-12-02T17:49:30.966Z,28.98
2022-12-02T17:52:37.246Z,26.05
2022-12-02T17:55:41.864Z,22.92
2022-12-02T17:58:44.295Z,23.30
2022-12-02T18:01:46.515Z,21.15
2022-12-02T18:04:48.574Z,24.40
2022-12-02T18:07:51.152Z,24.85
2022-12-02T18:10:53.367Z,35.88
2022-12-02T18:14:00.753Z,25.30
2022-12-02T18:17:04.392Z,30.88
2022-12-02T18:20:07.448Z,31.48
2022-12-02T18:23:09.448Z,34.13
2022-12-02T18:26:13.228Z,40.35
2022-12-02T18:29:15.400Z,34.65
2022-12-02T18:32:17.675Z,30.50
2022-12-02T18:35:19.990Z,34.55
2022-12-02T18:38:21.942Z,34.03
2022-12-02T18:41:25.769Z,37.47
2022-12-02T18:44:28.009Z,40.45
2022-12-02T18:47:30.245Z,31.40
2022-12-02T18:50:34.649Z,35.03
2022-12-02T18:53:36.744Z,44.47
2022-12-02T18:56:41.137Z,34.03
2022-12-02T18:59:43.059Z,32.95
2022-12-02T19:02:45.712Z,32.08
2022-12-02T19:05:48.034Z,31.05
2022-12-02T19:08:50.202Z,35.65
2022-12-02T19:16:07.906Z,24.98
2022-12-02T19:19:09.890Z,28.70
2022-12-02T19:22:12.728Z,25.58
2022-12-02T19:25:14.926Z,24.90
2022-12-02T19:28:17.286Z,30.42
2022-12-02T19:31:22.421Z,24.33
2022-12-02T19:34:24.594Z,25.42
2022-12-02T19:37:27.262Z,27.65
2022-12-02T19:40:35.737Z,22.23
2022-12-02T19:43:40.502Z,19.65
2022-12-02T19:46:43.583Z,27.75
2022-12-02T19:49:45.743Z,25.40
2022-12-02T19:52:48.677Z,19.38
2022-12-02T19:55:51.271Z,20.52
2022-12-02T19:58:53.846Z,18.08
2022-12-02T20:02:01.923Z,28.23
2022-12-02T20:05:05.699Z,20.13
2022-12-02T20:08:08.425Z,30.98
2022-12-02T20:11:10.771Z,22.35
2022-12-02T20:14:13.520Z,17.88
2022-12-02T20:17:15.686Z,21.92
2022-12-02T20:20:18.060Z,21.10
2022-12-02T20:23:20.633Z,21.80
2022-12-02T20:26:22.810Z,21.10
2022-12-02T20:29:25.625Z,19.95
2022-12-02T20:32:28.079Z,21.15
2022-12-02T20:35:31.095Z,24.25
2022-12-02T20:38:33.473Z,24.20
2022-12-02T20:41:35.862Z,30.45
2022-12-02T20:44:38.132Z,26.85
2022-12-02T20:47:40.561Z,26.40
2022-12-02T20:50:44.698Z,35.97
2022-12-02T20:53:47.683Z,43.70
2022-12-02T20:56:49.765Z,36.05
2022-12-02T20:59:53.363Z,35.10
2022-12-02T21:02:55.418Z,35.22
2022-12-02T21:05:58.276Z,22.08
2022-12-02T21:09:00.346Z,24.60
2022-12-02T21:12:02.628Z,28.50
2022-12-02T21:15:05.283Z,24.13
2022-12-02T21:18:08.894Z,27.27
2022-12-02T21:21:11.307Z,28.48
2022-12-02T21:24:13.171Z,22.52
2022-12-02T21:27:16.149Z,24.45
2022-12-02T21:30:18.460Z,25.55
2022-12-02T21:33:20.428Z,29.73
2022-12-02T21:36:22.716Z,27.52
2022-12-02T21:39:24.786Z,35.10
2022-12-02T21:42:27.525Z,27.45
2022-12-02T21:45:30.123Z,35.45
2022-12-02T21:48:32.198Z,27.02
2022-12-02T21:51:35.038Z,27.38
2022-12-02T21:54:37.035Z,28.85
2022-12-02T21:57:38.862Z,24.48
2022-12-02T22:00:40.960Z,23.75
2022-12-02T22:03:44.119Z,34.25
2022-12-02T22:06:46.970Z,38.08
2022-12-02T22:09:48.830Z,56.70
2022-12-02T22:12:51.806Z,46.92
2022-12-02T22:15:57.492Z,22.70
2022-12-02T22:19:00.006Z,26.13
2022-12-02T22:22:02.102Z,25.08
2022-12-02T22:25:04.824Z,21.95
2022-12-02T22:28:07.642Z,30.48
2022-12-02T22:31:09.532Z,34.08
2022-12-02T22:34:12.289Z,44.15
2022-12-02T22:37:14.506Z,24.27
2022-12-02T22:40:16.403Z,27.02
2022-12-02T22:43:18.670Z,25.17
2022-12-02T22:46:20.605Z,19.77
2022-12-02T22:49:23.248Z,41.33
2022-12-02T22:52:25.291Z,23.52
2022-12-02T22:55:27.457Z,25.48
2022-12-02T22:58:30.063Z,27.42
2022-12-02T23:01:32.448Z,22.27
2022-12-02T23:04:34.935Z,26.95
2022-12-02T23:07:37.012Z,15.77
2022-12-02T23:10:39.114Z,15.35
2022-12-02T23:13:41.235Z,25.55
2022-12-02T23:16:43.098Z,17.58
2022-12-02T23:19:45.245Z,21.55
2022-12-02T23:22:47.535Z,19.35
2022-12-02T23:25:49.521Z,20.70
2022-12-02T23:28:51.712Z,21.67
2022-12-02T23:31:53.734Z,18.83
2022-12-02T23:35:02.969Z,19.02
2022-12-02T23:38:04.837Z,20.85
2022-12-02T23:41:06.800Z,27.95
2022-12-02T23:44:09.024Z,18.98
2022-12-02T23:47:11.472Z,20.42
2022-12-02T23:50:13.909Z,17.98
2022-12-02T23:53:15.822Z,26.13
2022-12-02T23:56:17.684Z,18.92
2022-12-02T23:59:19.625Z,24.17
